»·PEaware :: N502CW KSMO-KONT

N502CW :: KSMO-KONT

FLIGHT INFORMATION

Flight Status: Arrived
Operator: Privately registered:
United States
More flights under this callsign
Pilot: Anonymous 29304 (29304)
Aircraft: CESSNA 172 SKYHAWK
(C172)
More flights by this aircraft type
Origin: KSMO Santa Monica Mun
United States
Destination: KONT Ontario Intl
United States
More flights between these airports :: More routes between these airports
Route: +SMO SMO125 V64 SLI V8 PDZ ONT
File this flight plan on PilotEdge
Remarks: TEC Route SMOP9
Altitude:
(Current/Filed)
5,000ft
Speed:
(Current/Filed)
110kts
Departed: 17-Aug-20 02:33 PM
Arrived: 17-Aug-20 03:23 PM
Distance/Time
Traveled:
42nm/0:50
Distance/Time
To Go:
Arrived

Flight Plot

Page will automatically refresh every two minutes.

Flight plan parsing failed; only flown route is shown


Map Options




Map Legend


Flown Route
Filed Route
Departure Airport
Arrival Airport
Navaid (VOR, NDB)
Fix

Horizontal Profiles

Position Reports

Time Latitude Longitude Heading Altitude Ground
Speed
17-Aug-20 14:13 34.014321 -118.454627 144 178ft 0kts
17-Aug-20 14:14 34.014321 -118.454627 144 178ft 0kts
17-Aug-20 14:15 34.014321 -118.454627 144 178ft 0kts
17-Aug-20 14:16 34.014321 -118.454627 144 178ft 0kts
17-Aug-20 14:17 34.014321 -118.454627 144 178ft 0kts
17-Aug-20 14:18 34.014321 -118.454627 144 178ft 0kts
17-Aug-20 14:19 34.014321 -118.454627 144 178ft 0kts
17-Aug-20 14:20 34.014321 -118.454627 144 178ft 0kts
17-Aug-20 14:21 34.014321 -118.454627 144 178ft 0kts
17-Aug-20 14:22 34.014321 -118.454627 144 178ft 0kts
17-Aug-20 14:23 34.014321 -118.454627 144 178ft 0kts
17-Aug-20 14:24 34.014321 -118.454627 144 178ft 0kts
17-Aug-20 14:24 34.014321 -118.454627 144 178ft 0kts
17-Aug-20 14:26 34.014275 -118.454547 108 178ft 3kts
17-Aug-20 14:27 34.015618 -118.452689 45 178ft 11kts
17-Aug-20 14:27 34.018179 -118.449654 44 178ft 17kts
17-Aug-20 14:29 34.019758 -118.447486 285 178ft 0kts
17-Aug-20 14:29 34.019758 -118.447486 285 178ft 0kts
17-Aug-20 14:30 34.019599 -118.447783 162 178ft 2kts
17-Aug-20 14:31 34.019428 -118.447584 133 178ft 6kts
17-Aug-20 14:32 34.009021 -118.458579 207 449ft 85kts
17-Aug-20 14:33 33.986531 -118.453649 210 1183ft 86kts
17-Aug-20 14:34 33.982538 -118.479104 263 1889ft 82kts
17-Aug-20 14:35 33.980136 -118.505797 267 2586ft 78kts
17-Aug-20 14:36 33.984868 -118.527519 27 3131ft 95kts
17-Aug-20 14:37 33.994429 -118.499595 67 3798ft 89kts
17-Aug-20 14:38 34.005983 -118.473336 57 4376ft 89kts
17-Aug-20 14:39 33.999430 -118.449385 142 4896ft 87kts
17-Aug-20 14:40 33.979390 -118.427281 147 5087ft 113kts
17-Aug-20 14:41 33.951058 -118.409116 161 5085ft 111kts
17-Aug-20 14:42 33.926775 -118.384783 136 5124ft 115kts
17-Aug-20 14:43 33.903627 -118.358280 144 5083ft 115kts
17-Aug-20 14:44 33.879456 -118.335259 142 5038ft 114kts
17-Aug-20 14:45 33.854084 -118.312093 149 5024ft 113kts
17-Aug-20 14:46 33.828106 -118.290568 149 5029ft 113kts
17-Aug-20 14:47 33.802000 -118.269111 146 5042ft 114kts
17-Aug-20 14:48 33.779107 -118.242824 115 5049ft 117kts
17-Aug-20 14:49 33.775905 -118.203640 92 5060ft 118kts
17-Aug-20 14:50 33.774907 -118.164010 92 5072ft 118kts
17-Aug-20 14:51 33.778154 -118.124527 81 5084ft 119kts
17-Aug-20 14:52 33.781023 -118.085003 87 5070ft 119kts
17-Aug-20 14:53 33.788038 -118.046147 80 5090ft 119kts
17-Aug-20 14:54 33.794675 -118.007091 72 5100ft 119kts
17-Aug-20 14:55 33.806035 -117.969665 73 5109ft 119kts
17-Aug-20 14:56 33.814163 -117.931071 75 5099ft 119kts
17-Aug-20 14:57 33.824259 -117.893021 69 5070ft 120kts
17-Aug-20 14:58 33.835198 -117.855283 71 5053ft 118kts
17-Aug-20 14:59 33.845562 -117.817377 67 5014ft 119kts
17-Aug-20 15:00 33.857440 -117.780243 70 4985ft 119kts
17-Aug-20 15:01 33.865393 -117.741683 75 5017ft 119kts
17-Aug-20 15:02 33.872628 -117.702926 73 5048ft 118kts
17-Aug-20 15:03 33.881178 -117.664422 73 5075ft 119kts
17-Aug-20 15:04 33.892970 -117.627273 71 5093ft 119kts
17-Aug-20 15:05 33.905822 -117.590677 66 5125ft 119kts
17-Aug-20 15:06 33.922010 -117.555896 62 5137ft 119kts
17-Aug-20 15:07 33.937739 -117.520783 61 5032ft 119kts
17-Aug-20 15:08 33.952229 -117.486579 61 5072ft 112kts
17-Aug-20 15:09 33.967359 -117.454163 57 5138ft 111kts
17-Aug-20 15:10 33.982365 -117.421530 62 5105ft 111kts
17-Aug-20 15:11 33.995240 -117.387550 61 5004ft 112kts
17-Aug-20 15:12 34.012854 -117.359286 13 4840ft 103kts
17-Aug-20 15:13 34.040213 -117.358653 324 4171ft 98kts
17-Aug-20 15:14 34.056390 -117.381007 276 3525ft 89kts
17-Aug-20 15:15 34.055639 -117.409029 272 3176ft 95kts
17-Aug-20 15:16 34.055760 -117.438638 262 3187ft 86kts
17-Aug-20 15:17 34.055844 -117.467842 271 3040ft 87kts
17-Aug-20 15:18 34.055337 -117.496864 270 2505ft 86kts
17-Aug-20 15:19 34.054963 -117.525099 267 1905ft 84kts
17-Aug-20 15:20 34.055702 -117.548849 259 1511ft 68kts
17-Aug-20 15:21 34.054893 -117.571591 268 1168ft 68kts
17-Aug-20 15:22 34.054906 -117.589120 260 923ft 17kts
17-Aug-20 15:23 34.053988 -117.589756 215 920ft 0kts
17-Aug-20 15:24 34.053829 -117.594629 272 920ft 20kts
17-Aug-20 15:25 34.053835 -117.601169 270 922ft 16kts
17-Aug-20 15:26 34.052026 -117.601535 182 910ft 13kts
17-Aug-20 15:27 34.051464 -117.601601 322 907ft 0kts

Navigation Log

Ident Type
Flight plan parsing failed, navigation log unavailable